Little Indian, Illinois
Current Conditions -  °F | °C
As of 12:55 PM on Monday 20 Oct 2014 (Local Time) from KIJX Reporting Station
Clear Clear  
Wind Chill: 70°   Ceiling: Unl
Heat Index: 70°   Visibility: 10mi
Dew Point: 44°   Wind: 15mph
Humidity: 39%   Direction: 300°WNW
Pressure: 29.95"   Gusts: 23mph
Location:  39.9268°N, 90.2187°W
Report Text: KIJX 201755Z AUTO 30013G20KT 10SM CLR 21/06 A2995 RMK AO2 T02090064 10209 20110
Loading
Personal Weather Stations






























Interactive Weather Map New forecast layout! Learn more

10-Day Weather Forecast

Advertisements
Track Severe Weather on mobile